Detall de PIREP

Printer-friendly versionPDF version

[2015/07/10 09:23:00]
Flight IATA:CT3233
Pilot Number:042
Company ICAO:CAT
Aircraft Type:B744/E
PAX:20
Departing Airport: LEMD
Destination Airport: LEPA
Alternate Airport:LEBL
Online: VATSIM
Route:NANDO UT257 LASPO UM871 GODOX
Flight Level:F250
No Slew and time accel
No pause
Crash detect
Detect pilot in Cockpit between each 30 and 45 minutes
09:23 Zero fuel Weight: 408052 Lbs, Fuel Weight: 320126 Lbs
09:23 VATSIM:LEMD 100900Z 16003KT CAVOK 30/06 Q1019 NOSIG
09:23 VATSIM:LEPA 100900Z 24007KT 200V280 9999 FEW016 28/21 Q1018 NOSIG
09:25 Parking Brakes off
09:33 Take-off
09:33 Take off Weight: 724537 Lbs
09:33 Wind: 159º @ 003 Knots Heading: 000º
09:33 POS N40º 31´ 57´´ W003º 33´ 32´´
09:33 Gear Up: 202 Knots
09:33 Flaps:2 at 202 Knots
09:33 Flaps:1 at 207 Knots
09:34 Flaps:0 at 224 Knots
09:46 TOC
09:46 Fuel Weight: 306860 Lb
09:48 Wind:291º@015 Knots Heading:106º Ground Speed: 492 Knots Altitude 25170 ft
10:03 Wind:320º@023 Knots Heading: 084º Ground Speed: 491 Knots Altitude 25118 ft
10:11 TOD
10:11 Fuel Weight: 298894 Lb
10:18 Wind:315º@020 Knots Heading: 052º Ground Speed: 394 Knots Altitude 14137 ft
10:23 Flaps:1 at 272 Knots
10:25 Flaps:2 at 206 Knots
10:26 Flaps:3 at 188 Knots
10:27 Gear Down: 189 Knots
10:29 Flaps:4 at 180 Knots
10:30 Flaps:5 at 174 Knots
10:32 TouchDown:Rate -452 ft/min Speed: 172 Knots
10:33 Wind:224º@008 Knots Heading: 238º Ground Speed: 158 Knots Altitude 039 ft
10:33 VATSIM:LEPA 101000Z 23008KT 200V280 9999 FEW016 29/20 Q1018 NOSIG
10:33 Land
10:33 Wind:225º@008 Knots
10:33 Heading: 238º
10:33 Flight Duration: 01:00
10:33 Landing Weight: 703008 Lbs
10:33 POS N39º 32´ 46´´ E002º 44´ 31´´
10:38 Parking brakes on
10:38 Block to Block Duration: 01:13
10:38 Final Fuel: 293389 Lbls
10:38 Spent Fuel: 26737 Lbls
10:38 Flight Length: 393 NM
10:38 TOD Land Length: 111 NM

Exportar CSV

Powered by Drupal - Modified by Danger4k